createdAt,value
2018-12-24T21:21:49.267Z,1009.01
2018-12-24T21:22:49.245Z,1009.06
2018-12-24T21:23:49.231Z,1009.07
2018-12-24T21:24:49.224Z,1009.10
2018-12-24T21:25:49.214Z,1009.07
2018-12-24T21:26:49.249Z,1009.08
2018-12-24T21:27:49.194Z,1009.11
2018-12-24T21:28:49.181Z,1009.17
2018-12-24T21:29:49.196Z,1009.16
2018-12-24T21:30:49.188Z,1009.10
2018-12-24T21:31:49.187Z,1009.16
2018-12-24T21:32:49.167Z,1009.17
2018-12-24T21:33:49.146Z,1009.15
2018-12-24T21:34:49.147Z,1009.22
2018-12-24T21:35:49.105Z,1009.22
2018-12-24T21:36:49.108Z,1009.24
2018-12-24T21:37:49.099Z,1009.18
2018-12-24T21:38:49.102Z,1009.20
2018-12-24T21:39:49.126Z,1009.19
2018-12-24T21:40:49.054Z,1009.15
2018-12-24T21:41:49.063Z,1009.06
2018-12-24T21:42:54.573Z,1009.01
2018-12-24T21:43:50.044Z,1008.98
2018-12-24T21:44:49.021Z,1009.02
2018-12-24T21:45:49.006Z,1008.91
2018-12-24T21:46:49.024Z,1008.94
2018-12-24T21:47:48.978Z,1008.92
2018-12-24T21:48:49.009Z,1008.88
2018-12-24T21:49:48.988Z,1008.82
2018-12-24T21:50:48.949Z,1008.88
2018-12-24T21:51:48.978Z,1008.87
2018-12-24T21:52:48.958Z,1008.85
2018-12-24T21:53:48.974Z,1008.82
2018-12-24T21:54:48.907Z,1008.80
2018-12-24T21:55:48.903Z,1008.71
2018-12-24T21:56:48.897Z,1008.60
2018-12-24T21:57:48.871Z,1008.59
2018-12-24T21:58:48.864Z,1008.57
2018-12-24T21:59:48.853Z,1008.50
2018-12-24T22:00:48.865Z,1008.50
2018-12-24T22:01:48.875Z,1008.45
2018-12-24T22:02:48.828Z,1008.42
2018-12-24T22:03:48.818Z,1008.36
2018-12-24T22:04:48.799Z,1008.35
2018-12-24T22:05:48.786Z,1008.39
2018-12-24T22:06:48.890Z,1008.41
2018-12-24T22:07:48.768Z,1008.43
2018-12-24T22:08:48.753Z,1008.44
2018-12-24T22:09:48.751Z,1008.46
2018-12-24T22:10:48.772Z,1008.52
2018-12-24T22:11:48.740Z,1008.54
2018-12-24T22:12:48.714Z,1008.55
2018-12-24T22:13:48.757Z,1008.62
2018-12-24T22:14:48.690Z,1008.59
2018-12-24T22:15:48.703Z,1008.63
2018-12-24T22:16:48.672Z,1008.63
2018-12-24T22:17:48.660Z,1008.65
2018-12-24T22:18:48.668Z,1008.68
2018-12-24T22:19:48.638Z,1008.68
2018-12-24T22:20:48.663Z,1008.64
2018-12-24T22:21:48.623Z,1008.62
2018-12-24T22:22:48.625Z,1008.59
2018-12-24T22:23:48.598Z,1008.54
2018-12-24T22:24:48.583Z,1008.64
2018-12-24T22:25:48.607Z,1008.67
2018-12-24T22:26:48.581Z,1008.68
2018-12-24T22:27:48.560Z,1008.70
2018-12-24T22:28:48.541Z,1008.66
2018-12-24T22:29:48.561Z,1008.71
2018-12-24T22:30:48.534Z,1008.70
2018-12-24T22:31:48.509Z,1008.73
2018-12-24T22:32:48.532Z,1008.65
2018-12-24T22:33:48.494Z,1008.60
2018-12-24T22:34:48.490Z,1008.60
2018-12-24T22:35:48.491Z,1008.59
2018-12-24T22:36:48.492Z,1008.55
2018-12-24T22:37:48.445Z,1008.55
2018-12-24T22:38:48.489Z,1008.54
2018-12-24T22:39:48.423Z,1008.53
2018-12-24T22:40:48.448Z,1008.47
2018-12-24T22:41:48.404Z,1008.46
2018-12-24T22:42:48.412Z,1008.41
2018-12-24T22:43:48.381Z,1008.49
2018-12-24T22:44:48.377Z,1008.47
2018-12-24T22:45:48.411Z,1008.47
2018-12-24T22:46:48.374Z,1008.47
2018-12-24T22:47:48.340Z,1008.41
2018-12-24T22:48:48.345Z,1008.38
2018-12-24T22:49:48.345Z,1008.42
2018-12-24T22:50:48.336Z,1008.36
2018-12-24T22:51:48.316Z,1008.32
2018-12-24T22:52:48.298Z,1008.35
2018-12-24T22:53:48.304Z,1008.37
2018-12-24T22:54:48.263Z,1008.33
2018-12-24T22:55:48.255Z,1008.33
2018-12-24T22:56:48.263Z,1008.32
2018-12-24T22:57:48.230Z,1008.31
2018-12-24T22:58:48.219Z,1008.25
2018-12-24T22:59:48.251Z,1008.26
2018-12-24T23:00:48.200Z,1008.21
2018-12-24T23:01:48.215Z,1008.24
2018-12-24T23:02:48.176Z,1008.16
2018-12-24T23:03:48.173Z,1008.18
2018-12-24T23:04:48.178Z,1008.16
2018-12-24T23:05:48.144Z,1008.19
2018-12-24T23:06:48.151Z,1008.20
2018-12-24T23:07:48.139Z,1008.23
2018-12-24T23:08:48.136Z,1008.19
2018-12-24T23:09:48.101Z,1008.18
2018-12-24T23:10:48.098Z,1008.16
2018-12-24T23:11:48.161Z,1008.19
2018-12-24T23:12:48.088Z,1008.23
2018-12-24T23:13:48.059Z,1008.23
2018-12-24T23:14:48.054Z,1008.25
2018-12-24T23:15:48.065Z,1008.30
2018-12-24T23:16:48.052Z,1008.30
2018-12-24T23:17:48.018Z,1008.33
2018-12-24T23:18:49.501Z,1008.35
2018-12-24T23:19:48.013Z,1008.34
2018-12-24T23:20:48.023Z,1008.38
2018-12-24T23:21:47.984Z,1008.41
2018-12-24T23:22:47.981Z,1008.38
2018-12-24T23:23:47.967Z,1008.38
2018-12-24T23:24:47.946Z,1008.39
2018-12-24T23:25:47.944Z,1008.34
2018-12-24T23:26:47.921Z,1008.38
2018-12-24T23:27:47.965Z,1008.37
2018-12-24T23:28:47.902Z,1008.34
2018-12-24T23:29:47.895Z,1008.31
2018-12-24T23:30:47.902Z,1008.32
2018-12-24T23:31:47.868Z,1008.35
2018-12-24T23:32:47.894Z,1008.39
2018-12-24T23:33:47.892Z,1008.48
2018-12-24T23:34:47.859Z,1008.48
2018-12-24T23:35:47.827Z,1008.44
2018-12-24T23:36:47.814Z,1008.48
2018-12-24T23:37:47.810Z,1008.46
2018-12-24T23:38:47.810Z,1008.49
2018-12-24T23:39:47.806Z,1008.46
2018-12-24T23:40:47.777Z,1008.49
2018-12-24T23:41:47.815Z,1008.45
2018-12-24T23:42:47.756Z,1008.50
2018-12-24T23:43:47.757Z,1008.51
2018-12-24T23:44:47.733Z,1008.48
2018-12-24T23:45:47.729Z,1008.51
2018-12-24T23:46:47.709Z,1008.52
2018-12-24T23:47:47.712Z,1008.55
2018-12-24T23:48:47.710Z,1008.53
2018-12-24T23:49:47.681Z,1008.50
2018-12-24T23:50:47.693Z,1008.57
2018-12-24T23:51:47.661Z,1008.50
2018-12-24T23:52:47.649Z,1008.53
2018-12-24T23:53:47.648Z,1008.53
2018-12-24T23:54:47.626Z,1008.50
2018-12-24T23:55:47.612Z,1008.51
2018-12-24T23:56:47.607Z,1008.53
2018-12-24T23:57:47.685Z,1008.57
2018-12-24T23:58:47.600Z,1008.56
2018-12-24T23:59:47.574Z,1008.57
